createdAt,value
2023-03-26T00:00:42.450Z,100
2023-03-26T00:05:42.419Z,100
2023-03-26T00:10:42.398Z,100
2023-03-26T00:15:42.391Z,100
2023-03-26T00:20:42.362Z,100
2023-03-26T00:25:42.330Z,100
2023-03-26T00:30:42.346Z,100
2023-03-26T00:35:42.308Z,100
2023-03-26T00:40:42.293Z,100
2023-03-26T00:45:42.319Z,100
2023-03-26T00:50:42.247Z,100
2023-03-26T00:55:42.247Z,100
2023-03-26T01:00:42.213Z,100
2023-03-26T01:05:42.260Z,100
2023-03-26T01:10:42.180Z,100
2023-03-26T01:15:42.163Z,100
2023-03-26T01:20:42.169Z,100
2023-03-26T01:25:42.095Z,100
2023-03-26T01:30:42.096Z,100
2023-03-26T01:35:42.125Z,100
2023-03-26T01:40:42.122Z,100
2023-03-26T01:45:42.042Z,100
2023-03-26T01:50:42.046Z,100
2023-03-26T01:55:42.009Z,100
2023-03-26T02:00:41.982Z,100
2023-03-26T02:05:42.066Z,100
2023-03-26T02:10:41.975Z,100
2023-03-26T02:15:41.908Z,100
2023-03-26T02:20:41.894Z,100
2023-03-26T02:25:41.868Z,100
2023-03-26T02:30:41.853Z,100
2023-03-26T02:35:41.827Z,100
2023-03-26T02:40:41.817Z,100
2023-03-26T02:45:41.798Z,100
2023-03-26T02:50:41.777Z,100
2023-03-26T02:55:41.742Z,100
2023-03-26T03:00:41.750Z,100
2023-03-26T03:05:41.712Z,100
2023-03-26T03:10:41.698Z,100
2023-03-26T03:15:41.668Z,100
2023-03-26T03:20:41.668Z,100
2023-03-26T03:25:41.629Z,100
2023-03-26T03:30:41.622Z,100
2023-03-26T03:35:41.627Z,100
2023-03-26T03:40:41.587Z,100
2023-03-26T03:45:41.564Z,100
2023-03-26T03:50:41.545Z,100
2023-03-26T03:55:41.524Z,100
2023-03-26T04:00:41.514Z,100
2023-03-26T04:05:41.503Z,100
2023-03-26T04:10:41.474Z,100
2023-03-26T04:15:41.448Z,100
2023-03-26T04:20:41.432Z,100
2023-03-26T04:25:41.398Z,100
2023-03-26T04:30:41.393Z,100
2023-03-26T04:35:41.370Z,100
2023-03-26T04:40:41.360Z,100
2023-03-26T04:45:41.337Z,100
2023-03-26T04:50:41.324Z,100
2023-03-26T04:55:41.301Z,100
2023-03-26T05:00:41.269Z,100
2023-03-26T05:05:41.260Z,100
2023-03-26T05:10:41.254Z,100
2023-03-26T05:15:41.215Z,100
2023-03-26T05:20:41.197Z,100
2023-03-26T05:25:41.172Z,100
2023-03-26T05:30:41.157Z,100
2023-03-26T05:35:41.146Z,100
2023-03-26T05:40:41.120Z,100
2023-03-26T05:45:41.118Z,100
2023-03-26T05:50:41.084Z,100
2023-03-26T05:55:41.080Z,100
2023-03-26T06:00:41.042Z,100
2023-03-26T06:05:41.031Z,100
2023-03-26T06:10:41.018Z,100
2023-03-26T06:15:40.983Z,100
2023-03-26T06:20:40.973Z,100
2023-03-26T06:25:41.000Z,100
2023-03-26T06:30:40.927Z,100
2023-03-26T06:35:40.921Z,100
2023-03-26T06:40:40.884Z,100
2023-03-26T06:45:40.878Z,100
2023-03-26T06:50:40.850Z,100
2023-03-26T06:55:40.838Z,100
2023-03-26T07:00:40.803Z,100
2023-03-26T07:05:40.806Z,100
2023-03-26T07:10:40.818Z,100
2023-03-26T07:15:40.777Z,100
2023-03-26T07:20:40.738Z,100
2023-03-26T07:25:40.766Z,100
2023-03-26T07:30:40.788Z,100
2023-03-26T07:35:40.685Z,100
2023-03-26T07:40:40.659Z,100
2023-03-26T07:45:40.639Z,100
2023-03-26T07:50:40.645Z,100
2023-03-26T07:55:40.603Z,100
2023-03-26T08:00:40.585Z,100
2023-03-26T08:05:40.561Z,98.5
2023-03-26T08:10:40.537Z,99
2023-03-26T08:15:40.539Z,98
2023-03-26T08:20:40.521Z,97.5
2023-03-26T08:25:40.475Z,100
2023-03-26T08:30:40.540Z,100
2023-03-26T08:35:40.487Z,100
2023-03-26T08:40:40.419Z,100
2023-03-26T08:45:40.396Z,100
2023-03-26T08:50:40.385Z,100
2023-03-26T08:55:40.367Z,100
2023-03-26T09:00:40.340Z,100
2023-03-26T09:05:40.323Z,100
2023-03-26T09:10:40.361Z,100
2023-03-26T09:15:40.328Z,100
2023-03-26T09:20:40.269Z,100
2023-03-26T09:25:40.302Z,100
2023-03-26T09:30:40.235Z,100
2023-03-26T09:35:40.281Z,100
2023-03-26T09:40:40.207Z,100
2023-03-26T09:45:40.180Z,100
2023-03-26T09:50:40.143Z,100
2023-03-26T09:55:40.117Z,100
2023-03-26T10:00:40.129Z,100
2023-03-26T10:05:40.086Z,100
2023-03-26T10:10:40.058Z,100
2023-03-26T10:15:40.048Z,100
2023-03-26T10:20:40.016Z,100
2023-03-26T10:25:40.040Z,100
2023-03-26T10:30:39.979Z,100
2023-03-26T10:35:39.958Z,100
2023-03-26T10:40:39.938Z,100
2023-03-26T10:45:39.909Z,100
2023-03-26T10:50:39.883Z,100
2023-03-26T10:55:40.064Z,90
2023-03-26T11:00:39.841Z,93.5
2023-03-26T11:05:39.837Z,97
2023-03-26T11:10:39.806Z,97.5
2023-03-26T11:15:39.804Z,100
2023-03-26T11:20:39.765Z,87
2023-03-26T11:25:39.751Z,81.5
2023-03-26T11:30:39.853Z,74.5
2023-03-26T11:35:39.760Z,71.5
2023-03-26T11:40:39.695Z,77
2023-03-26T11:45:39.670Z,73.5
2023-03-26T11:50:39.638Z,72.5
2023-03-26T11:55:39.656Z,67
2023-03-26T12:00:39.593Z,76
2023-03-26T12:05:39.582Z,73
2023-03-26T12:10:39.562Z,77.5
2023-03-26T12:15:39.525Z,81
2023-03-26T12:20:39.514Z,82.5
2023-03-26T12:25:39.483Z,79.5
2023-03-26T12:30:39.474Z,85.5
2023-03-26T12:35:39.590Z,87.5
2023-03-26T12:40:39.425Z,98.5
2023-03-26T12:45:39.425Z,100
2023-03-26T12:50:39.438Z,100
2023-03-26T12:55:39.360Z,100
2023-03-26T13:00:39.498Z,100
2023-03-26T13:05:39.315Z,100
2023-03-26T13:10:39.309Z,100
2023-03-26T13:15:39.318Z,100
2023-03-26T13:20:39.253Z,100
2023-03-26T13:25:39.253Z,100
2023-03-26T13:30:39.229Z,100
2023-03-26T13:35:39.258Z,100
2023-03-26T13:40:39.190Z,100
2023-03-26T13:45:39.188Z,100
2023-03-26T13:50:39.159Z,100
2023-03-26T13:55:39.152Z,100
2023-03-26T14:00:39.133Z,100
2023-03-26T14:05:39.102Z,100
2023-03-26T14:10:39.069Z,100
2023-03-26T14:15:39.136Z,100
2023-03-26T14:20:39.030Z,100
2023-03-26T14:25:39.033Z,100
2023-03-26T14:30:38.992Z,100
2023-03-26T14:35:38.981Z,100
2023-03-26T14:40:38.945Z,100
2023-03-26T14:45:38.924Z,100
2023-03-26T14:50:38.939Z,100
2023-03-26T14:55:38.900Z,100
2023-03-26T15:00:38.861Z,100
2023-03-26T15:05:38.850Z,100
2023-03-26T15:10:38.826Z,100
2023-03-26T15:15:38.966Z,100
2023-03-26T15:20:38.798Z,100
2023-03-26T15:25:38.810Z,100
2023-03-26T15:30:38.751Z,100
2023-03-26T15:35:38.742Z,100
2023-03-26T15:40:38.721Z,100
2023-03-26T15:45:38.808Z,100
2023-03-26T15:50:38.672Z,100
2023-03-26T15:55:38.650Z,100
2023-03-26T16:00:38.647Z,100
2023-03-26T16:05:38.627Z,100
2023-03-26T16:10:38.594Z,100
2023-03-26T16:15:38.577Z,100
2023-03-26T16:20:38.551Z,100
2023-03-26T16:25:38.541Z,100
2023-03-26T16:30:38.565Z,100
2023-03-26T16:35:38.494Z,100
2023-03-26T16:40:38.480Z,100
2023-03-26T16:45:38.454Z,100
2023-03-26T16:50:38.445Z,100
2023-03-26T16:55:38.433Z,100
2023-03-26T17:00:38.403Z,100
2023-03-26T17:05:38.385Z,100
2023-03-26T17:10:38.367Z,100
2023-03-26T17:15:38.340Z,100
2023-03-26T17:20:38.323Z,100
2023-03-26T17:25:38.299Z,100
2023-03-26T17:30:38.286Z,100
2023-03-26T17:35:38.264Z,100
2023-03-26T17:40:38.243Z,100
2023-03-26T17:45:38.219Z,100
2023-03-26T17:50:38.214Z,100
2023-03-26T17:55:38.190Z,100
2023-03-26T18:00:38.161Z,100
2023-03-26T18:05:38.152Z,100
2023-03-26T18:10:38.133Z,100
2023-03-26T18:15:38.119Z,100
2023-03-26T18:20:38.112Z,100
2023-03-26T18:25:38.114Z,100
2023-03-26T18:30:38.055Z,100
2023-03-26T18:35:38.038Z,100
2023-03-26T18:40:38.023Z,100
2023-03-26T18:45:37.994Z,100
2023-03-26T18:50:37.997Z,100
2023-03-26T18:55:37.960Z,100
2023-03-26T19:00:37.958Z,100
2023-03-26T19:05:37.916Z,100
2023-03-26T19:10:37.903Z,100
2023-03-26T19:15:37.891Z,100
2023-03-26T19:20:37.863Z,100
2023-03-26T19:25:37.846Z,100
2023-03-26T19:30:37.824Z,100
2023-03-26T19:35:37.806Z,100
2023-03-26T19:40:37.977Z,100
2023-03-26T19:45:37.956Z,100
2023-03-26T19:50:37.760Z,100
2023-03-26T19:55:37.875Z,100
2023-03-26T20:00:37.843Z,100
2023-03-26T20:05:37.881Z,100
2023-03-26T20:10:37.870Z,100
2023-03-26T20:15:37.821Z,100
2023-03-26T20:20:37.818Z,100
2023-03-26T20:25:37.764Z,100
2023-03-26T20:30:37.615Z,100
2023-03-26T20:35:37.734Z,100
2023-03-26T20:40:37.582Z,100
2023-03-26T20:45:37.535Z,100
2023-03-26T20:50:37.528Z,100
2023-03-26T20:55:37.523Z,100
2023-03-26T21:00:37.477Z,100
2023-03-26T21:05:37.454Z,100
2023-03-26T21:10:37.440Z,100
2023-03-26T21:15:37.420Z,100
2023-03-26T21:20:37.488Z,100
2023-03-26T21:25:37.393Z,100
2023-03-26T21:30:37.357Z,100
2023-03-26T21:35:37.349Z,100
2023-03-26T21:40:37.331Z,100
2023-03-26T21:45:37.322Z,100
2023-03-26T21:50:37.290Z,100
2023-03-26T21:55:37.279Z,100
2023-03-26T22:00:37.300Z,100
2023-03-26T22:05:37.242Z,100
2023-03-26T22:10:37.221Z,100
2023-03-26T22:15:37.201Z,100
2023-03-26T22:20:37.178Z,100
2023-03-26T22:25:37.165Z,100
2023-03-26T22:30:37.148Z,100
2023-03-26T22:35:37.120Z,100
2023-03-26T22:40:37.117Z,100
2023-03-26T22:45:37.092Z,99
2023-03-26T22:50:37.063Z,100
2023-03-26T22:55:37.060Z,100
2023-03-26T23:00:37.053Z,100
2023-03-26T23:05:37.013Z,99.5
2023-03-26T23:10:36.986Z,100
2023-03-26T23:15:36.970Z,100
2023-03-26T23:20:36.952Z,100
2023-03-26T23:25:36.927Z,99.5
2023-03-26T23:30:36.910Z,100
2023-03-26T23:35:36.892Z,100
2023-03-26T23:40:36.877Z,100
2023-03-26T23:45:36.903Z,100
2023-03-26T23:50:36.838Z,99
2023-03-26T23:55:36.827Z,100
